sensor_id;sensor_type;location;lat;lon;timestamp;P1;durP1;ratioP1;P2;durP2;ratioP2
21624;SDS011;10974;51.034;3.744;2022-10-30T04:02:50;5.27;;;3.13;;
21624;SDS011;10974;51.034;3.744;2022-10-30T04:05:21;4.63;;;2.67;;
21624;SDS011;10974;51.034;3.744;2022-10-30T04:07:47;2.70;;;2.50;;
21624;SDS011;10974;51.034;3.744;2022-10-30T04:10:13;5.80;;;2.73;;
21624;SDS011;10974;51.034;3.744;2022-10-30T04:12:39;4.53;;;2.80;;
21624;SDS011;10974;51.034;3.744;2022-10-30T04:15:06;3.33;;;2.57;;
21624;SDS011;10974;51.034;3.744;2022-10-30T04:17:33;4.30;;;2.70;;
21624;SDS011;10974;51.034;3.744;2022-10-30T04:19:58;4.97;;;2.77;;
21624;SDS011;10974;51.034;3.744;2022-10-30T04:22:24;5.63;;;2.87;;
21624;SDS011;10974;51.034;3.744;2022-10-30T04:24:50;2.97;;;2.27;;
21624;SDS011;10974;51.034;3.744;2022-10-30T04:27:17;4.00;;;2.47;;
21624;SDS011;10974;51.034;3.744;2022-10-30T04:29:44;4.43;;;2.50;;
21624;SDS011;10974;51.034;3.744;2022-10-30T04:32:11;4.17;;;2.50;;
21624;SDS011;10974;51.034;3.744;2022-10-30T04:34:36;4.00;;;2.93;;
21624;SDS011;10974;51.034;3.744;2022-10-30T04:37:03;4.30;;;2.60;;
21624;SDS011;10974;51.034;3.744;2022-10-30T04:39:30;6.07;;;3.40;;
21624;SDS011;10974;51.034;3.744;2022-10-30T04:41:56;5.70;;;2.93;;
21624;SDS011;10974;51.034;3.744;2022-10-30T04:44:22;7.07;;;3.40;;
21624;SDS011;10974;51.034;3.744;2022-10-30T04:46:47;5.23;;;2.73;;
21624;SDS011;10974;51.034;3.744;2022-10-30T04:49:13;7.77;;;2.93;;
21624;SDS011;10974;51.034;3.744;2022-10-30T04:51:39;8.27;;;3.17;;
21624;SDS011;10974;51.034;3.744;2022-10-30T04:54:04;5.20;;;3.10;;
21624;SDS011;10974;51.034;3.744;2022-10-30T04:56:30;4.73;;;2.70;;
21624;SDS011;10974;51.034;3.744;2022-10-30T04:58:57;9.90;;;3.33;;
21624;SDS011;10974;51.034;3.744;2022-10-30T05:01:23;8.83;;;3.50;;
21624;SDS011;10974;51.034;3.744;2022-10-30T05:03:48;7.50;;;3.17;;
21624;SDS011;10974;51.034;3.744;2022-10-30T05:06:24;4.20;;;2.70;;
21624;SDS011;10974;51.034;3.744;2022-10-30T05:08:51;3.60;;;2.70;;
21624;SDS011;10974;51.034;3.744;2022-10-30T05:11:16;6.00;;;3.30;;
21624;SDS011;10974;51.034;3.744;2022-10-30T05:13:42;5.40;;;3.30;;
21624;SDS011;10974;51.034;3.744;2022-10-30T05:16:08;6.00;;;4.13;;
21624;SDS011;10974;51.034;3.744;2022-10-30T05:18:34;6.90;;;2.77;;
21624;SDS011;10974;51.034;3.744;2022-10-30T05:21:00;3.23;;;2.50;;
21624;SDS011;10974;51.034;3.744;2022-10-30T05:23:25;3.97;;;2.63;;
21624;SDS011;10974;51.034;3.744;2022-10-30T05:25:51;4.37;;;2.77;;
21624;SDS011;10974;51.034;3.744;2022-10-30T05:28:17;3.40;;;2.40;;
21624;SDS011;10974;51.034;3.744;2022-10-30T05:30:42;3.83;;;2.80;;
21624;SDS011;10974;51.034;3.744;2022-10-30T05:33:08;3.50;;;2.80;;
21624;SDS011;10974;51.034;3.744;2022-10-30T05:35:35;10.43;;;2.83;;
21624;SDS011;10974;51.034;3.744;2022-10-30T05:38:03;9.87;;;3.20;;
21624;SDS011;10974;51.034;3.744;2022-10-30T05:40:30;4.80;;;3.00;;
21624;SDS011;10974;51.034;3.744;2022-10-30T05:42:57;5.50;;;3.10;;
21624;SDS011;10974;51.034;3.744;2022-10-30T05:45:23;8.50;;;2.63;;
21624;SDS011;10974;51.034;3.744;2022-10-30T05:47:55;4.27;;;2.67;;
21624;SDS011;10974;51.034;3.744;2022-10-30T05:50:25;4.80;;;2.33;;
21624;SDS011;10974;51.034;3.744;2022-10-30T05:52:59;6.60;;;2.80;;
21624;SDS011;10974;51.034;3.744;2022-10-30T05:55:26;4.33;;;2.40;;
21624;SDS011;10974;51.034;3.744;2022-10-30T05:57:56;5.30;;;2.70;;
21624;SDS011;10974;51.034;3.744;2022-10-30T06:00:22;3.97;;;3.00;;
21624;SDS011;10974;51.034;3.744;2022-10-30T06:02:48;4.00;;;2.40;;
21624;SDS011;10974;51.034;3.744;2022-10-30T06:05:14;4.30;;;2.80;;
21624;SDS011;10974;51.034;3.744;2022-10-30T06:07:40;5.60;;;2.87;;
21624;SDS011;10974;51.034;3.744;2022-10-30T06:10:05;5.40;;;3.30;;
21624;SDS011;10974;51.034;3.744;2022-10-30T06:12:31;4.03;;;2.80;;
21624;SDS011;10974;51.034;3.744;2022-10-30T06:14:57;4.63;;;3.00;;
21624;SDS011;10974;51.034;3.744;2022-10-30T06:17:22;4.00;;;2.67;;
21624;SDS011;10974;51.034;3.744;2022-10-30T06:19:48;5.67;;;2.97;;
21624;SDS011;10974;51.034;3.744;2022-10-30T06:22:13;5.17;;;2.40;;
21624;SDS011;10974;51.034;3.744;2022-10-30T06:24:39;7.83;;;2.80;;
21624;SDS011;10974;51.034;3.744;2022-10-30T06:27:05;4.93;;;2.70;;
21624;SDS011;10974;51.034;3.744;2022-10-30T06:29:30;6.00;;;2.90;;
21624;SDS011;10974;51.034;3.744;2022-10-30T06:31:56;5.37;;;2.83;;
21624;SDS011;10974;51.034;3.744;2022-10-30T06:34:22;7.20;;;2.80;;
21624;SDS011;10974;51.034;3.744;2022-10-30T06:36:47;9.70;;;3.03;;
21624;SDS011;10974;51.034;3.744;2022-10-30T06:39:13;4.63;;;2.37;;
21624;SDS011;10974;51.034;3.744;2022-10-30T06:41:39;5.97;;;3.20;;
21624;SDS011;10974;51.034;3.744;2022-10-30T06:44:04;5.43;;;2.97;;
21624;SDS011;10974;51.034;3.744;2022-10-30T06:46:30;4.20;;;2.83;;
21624;SDS011;10974;51.034;3.744;2022-10-30T06:48:56;6.10;;;3.53;;
21624;SDS011;10974;51.034;3.744;2022-10-30T06:51:21;6.90;;;3.20;;
21624;SDS011;10974;51.034;3.744;2022-10-30T06:53:47;5.23;;;3.03;;
21624;SDS011;10974;51.034;3.744;2022-10-30T06:56:13;5.00;;;2.90;;
21624;SDS011;10974;51.034;3.744;2022-10-30T06:58:38;16.03;;;7.33;;
21624;SDS011;10974;51.034;3.744;2022-10-30T07:01:04;15.67;;;8.23;;
21624;SDS011;10974;51.034;3.744;2022-10-30T07:03:31;17.97;;;7.57;;
21624;SDS011;10974;51.034;3.744;2022-10-30T07:05:57;12.17;;;6.60;;
21624;SDS011;10974;51.034;3.744;2022-10-30T07:08:22;15.37;;;7.17;;
21624;SDS011;10974;51.034;3.744;2022-10-30T07:10:48;14.27;;;7.60;;
21624;SDS011;10974;51.034;3.744;2022-10-30T07:13:14;19.57;;;7.20;;
21624;SDS011;10974;51.034;3.744;2022-10-30T07:15:40;11.33;;;7.40;;
21624;SDS011;10974;51.034;3.744;2022-10-30T07:18:06;13.00;;;6.80;;
21624;SDS011;10974;51.034;3.744;2022-10-30T07:20:34;11.07;;;7.00;;
21624;SDS011;10974;51.034;3.744;2022-10-30T07:23:00;16.17;;;7.00;;
21624;SDS011;10974;51.034;3.744;2022-10-30T07:25:26;16.90;;;6.57;;
21624;SDS011;10974;51.034;3.744;2022-10-30T07:27:53;17.30;;;7.10;;
21624;SDS011;10974;51.034;3.744;2022-10-30T07:30:20;19.50;;;6.73;;
21624;SDS011;10974;51.034;3.744;2022-10-30T07:32:58;17.03;;;7.77;;
21624;SDS011;10974;51.034;3.744;2022-10-30T07:35:25;14.97;;;7.57;;
21624;SDS011;10974;51.034;3.744;2022-10-30T07:37:51;19.33;;;7.80;;
21624;SDS011;10974;51.034;3.744;2022-10-30T07:40:17;12.83;;;7.03;;
21624;SDS011;10974;51.034;3.744;2022-10-30T07:42:43;15.03;;;7.40;;
21624;SDS011;10974;51.034;3.744;2022-10-30T07:45:09;15.73;;;7.90;;
21624;SDS011;10974;51.034;3.744;2022-10-30T07:47:38;14.60;;;7.77;;
21624;SDS011;10974;51.034;3.744;2022-10-30T07:50:08;18.53;;;8.17;;
21624;SDS011;10974;51.034;3.744;2022-10-30T07:52:34;14.93;;;7.53;;
21624;SDS011;10974;51.034;3.744;2022-10-30T07:55:00;20.00;;;7.37;;
21624;SDS011;10974;51.034;3.744;2022-10-30T07:57:26;19.40;;;7.13;;
21624;SDS011;10974;51.034;3.744;2022-10-30T07:59:51;14.30;;;6.87;;
21624;SDS011;10974;51.034;3.744;2022-10-30T08:02:17;14.90;;;7.53;;
21624;SDS011;10974;51.034;3.744;2022-10-30T08:04:42;16.83;;;6.83;;
21624;SDS011;10974;51.034;3.744;2022-10-30T08:07:08;11.27;;;7.23;;
21624;SDS011;10974;51.034;3.744;2022-10-30T08:09:34;14.67;;;6.53;;
21624;SDS011;10974;51.034;3.744;2022-10-30T08:11:59;12.67;;;6.53;;
21624;SDS011;10974;51.034;3.744;2022-10-30T08:14:25;15.50;;;7.57;;
21624;SDS011;10974;51.034;3.744;2022-10-30T08:16:51;14.10;;;7.23;;
21624;SDS011;10974;51.034;3.744;2022-10-30T08:19:16;12.50;;;7.60;;
21624;SDS011;10974;51.034;3.744;2022-10-30T08:21:42;14.33;;;7.20;;
21624;SDS011;10974;51.034;3.744;2022-10-30T08:24:07;15.40;;;6.90;;
21624;SDS011;10974;51.034;3.744;2022-10-30T08:26:33;13.97;;;7.50;;
21624;SDS011;10974;51.034;3.744;2022-10-30T08:28:59;14.93;;;7.87;;
21624;SDS011;10974;51.034;3.744;2022-10-30T08:31:25;13.13;;;7.40;;
21624;SDS011;10974;51.034;3.744;2022-10-30T08:33:51;14.73;;;7.40;;
21624;SDS011;10974;51.034;3.744;2022-10-30T08:36:16;20.10;;;6.80;;
21624;SDS011;10974;51.034;3.744;2022-10-30T08:38:42;18.03;;;8.10;;
21624;SDS011;10974;51.034;3.744;2022-10-30T08:41:07;18.00;;;7.20;;
21624;SDS011;10974;51.034;3.744;2022-10-30T08:43:33;14.83;;;6.80;;
21624;SDS011;10974;51.034;3.744;2022-10-30T08:45:59;17.80;;;7.27;;
21624;SDS011;10974;51.034;3.744;2022-10-30T08:48:25;14.70;;;8.17;;
21624;SDS011;10974;51.034;3.744;2022-10-30T08:50:51;11.90;;;7.00;;
21624;SDS011;10974;51.034;3.744;2022-10-30T08:53:18;16.30;;;6.70;;
21624;SDS011;10974;51.034;3.744;2022-10-30T08:55:44;14.80;;;7.20;;
21624;SDS011;10974;51.034;3.744;2022-10-30T08:58:10;12.60;;;6.57;;
21624;SDS011;10974;51.034;3.744;2022-10-30T09:00:35;14.90;;;6.90;;
21624;SDS011;10974;51.034;3.744;2022-10-30T09:03:02;15.97;;;6.50;;
21624;SDS011;10974;51.034;3.744;2022-10-30T09:05:27;11.20;;;7.00;;
21624;SDS011;10974;51.034;3.744;2022-10-30T09:07:56;14.97;;;6.60;;
21624;SDS011;10974;51.034;3.744;2022-10-30T09:10:22;11.93;;;7.57;;
21624;SDS011;10974;51.034;3.744;2022-10-30T09:12:52;13.10;;;7.23;;
21624;SDS011;10974;51.034;3.744;2022-10-30T09:15:20;16.40;;;7.20;;
21624;SDS011;10974;51.034;3.744;2022-10-30T09:17:45;16.03;;;7.03;;
21624;SDS011;10974;51.034;3.744;2022-10-30T09:20:11;18.67;;;6.77;;
21624;SDS011;10974;51.034;3.744;2022-10-30T09:22:40;17.07;;;6.90;;
21624;SDS011;10974;51.034;3.744;2022-10-30T09:25:06;16.63;;;7.37;;
21624;SDS011;10974;51.034;3.744;2022-10-30T09:27:36;13.97;;;6.90;;
21624;SDS011;10974;51.034;3.744;2022-10-30T09:30:02;12.40;;;7.13;;
21624;SDS011;10974;51.034;3.744;2022-10-30T09:32:28;15.77;;;7.10;;
21624;SDS011;10974;51.034;3.744;2022-10-30T09:34:54;17.87;;;7.80;;
21624;SDS011;10974;51.034;3.744;2022-10-30T09:37:19;13.23;;;7.80;;
21624;SDS011;10974;51.034;3.744;2022-10-30T09:39:47;19.30;;;10.50;;
21624;SDS011;10974;51.034;3.744;2022-10-30T09:44:54;19.70;;;8.43;;
21624;SDS011;10974;51.034;3.744;2022-10-30T09:47:47;17.70;;;9.87;;
21624;SDS011;10974;51.034;3.744;2022-10-30T09:50:27;14.97;;;7.30;;
21624;SDS011;10974;51.034;3.744;2022-10-30T09:56:05;15.07;;;6.20;;
21624;SDS011;10974;51.034;3.744;2022-10-30T10:03:50;13.37;;;6.40;;
21624;SDS011;10974;51.034;3.744;2022-10-30T10:06:25;15.23;;;6.67;;
21624;SDS011;10974;51.034;3.744;2022-10-30T10:08:55;10.53;;;6.67;;
21624;SDS011;10974;51.034;3.744;2022-10-30T10:11:30;13.70;;;6.70;;
21624;SDS011;10974;51.034;3.744;2022-10-30T10:16:38;14.47;;;6.47;;
21624;SDS011;10974;51.034;3.744;2022-10-30T10:19:07;16.53;;;6.30;;
21624;SDS011;10974;51.034;3.744;2022-10-30T10:21:45;15.90;;;6.57;;
21624;SDS011;10974;51.034;3.744;2022-10-30T10:24:32;11.87;;;5.40;;
21624;SDS011;10974;51.034;3.744;2022-10-30T10:38:02;13.00;;;6.00;;
21624;SDS011;10974;51.034;3.744;2022-10-30T10:40:39;17.90;;;6.07;;
21624;SDS011;10974;51.034;3.744;2022-10-30T10:43:22;12.63;;;6.50;;
21624;SDS011;10974;51.034;3.744;2022-10-30T10:48:48;20.63;;;6.90;;
21624;SDS011;10974;51.034;3.744;2022-10-30T10:56:18;14.67;;;6.50;;
21624;SDS011;10974;51.034;3.744;2022-10-30T10:58:54;13.30;;;7.13;;
21624;SDS011;10974;51.034;3.744;2022-10-30T11:01:38;12.70;;;7.03;;
21624;SDS011;10974;51.034;3.744;2022-10-30T11:06:37;16.17;;;7.63;;
21624;SDS011;10974;51.034;3.744;2022-10-30T11:09:13;11.77;;;7.30;;
21624;SDS011;10974;51.034;3.744;2022-10-30T11:11:39;23.50;;;7.50;;
21624;SDS011;10974;51.034;3.744;2022-10-30T11:14:10;11.53;;;6.67;;
21624;SDS011;10974;51.034;3.744;2022-10-30T11:19:30;14.10;;;8.37;;
21624;SDS011;10974;51.034;3.744;2022-10-30T11:21:56;14.13;;;7.80;;
21624;SDS011;10974;51.034;3.744;2022-10-30T11:24:35;12.40;;;7.40;;
21624;SDS011;10974;51.034;3.744;2022-10-30T11:29:51;17.87;;;7.33;;
21624;SDS011;10974;51.034;3.744;2022-10-30T11:32:20;15.70;;;7.87;;
21624;SDS011;10974;51.034;3.744;2022-10-30T11:35:10;16.23;;;6.97;;
21624;SDS011;10974;51.034;3.744;2022-10-30T11:37:38;11.30;;;6.77;;
21624;SDS011;10974;51.034;3.744;2022-10-30T11:42:34;12.57;;;7.00;;
21624;SDS011;10974;51.034;3.744;2022-10-30T11:45:02;15.73;;;7.00;;
21624;SDS011;10974;51.034;3.744;2022-10-30T11:47:36;18.40;;;7.73;;
21624;SDS011;10974;51.034;3.744;2022-10-30T11:50:06;15.30;;;6.67;;
21624;SDS011;10974;51.034;3.744;2022-10-30T11:52:41;18.93;;;8.27;;
21624;SDS011;10974;51.034;3.744;2022-10-30T11:55:18;16.30;;;7.90;;
21624;SDS011;10974;51.034;3.744;2022-10-30T11:57:57;17.63;;;7.13;;
21624;SDS011;10974;51.034;3.744;2022-10-30T12:00:24;15.67;;;7.07;;
21624;SDS011;10974;51.034;3.744;2022-10-30T12:02:52;17.00;;;7.90;;
21624;SDS011;10974;51.034;3.744;2022-10-30T12:08:11;14.37;;;7.33;;
21624;SDS011;10974;51.034;3.744;2022-10-30T12:13:19;18.57;;;8.33;;
21624;SDS011;10974;51.034;3.744;2022-10-30T12:15:48;22.73;;;9.90;;
21624;SDS011;10974;51.034;3.744;2022-10-30T12:18:16;15.17;;;8.63;;
21624;SDS011;10974;51.034;3.744;2022-10-30T12:20:46;18.97;;;7.37;;
21624;SDS011;10974;51.034;3.744;2022-10-30T12:23:16;11.53;;;7.20;;
21624;SDS011;10974;51.034;3.744;2022-10-30T12:25:46;11.47;;;6.10;;
21624;SDS011;10974;51.034;3.744;2022-10-30T12:28:14;14.40;;;7.10;;
21624;SDS011;10974;51.034;3.744;2022-10-30T12:33:44;11.30;;;6.90;;
21624;SDS011;10974;51.034;3.744;2022-10-30T12:36:28;13.53;;;7.23;;
21624;SDS011;10974;51.034;3.744;2022-10-30T12:39:43;13.83;;;6.83;;
21624;SDS011;10974;51.034;3.744;2022-10-30T12:42:25;11.27;;;6.40;;
21624;SDS011;10974;51.034;3.744;2022-10-30T12:52:40;10.70;;;6.23;;
21624;SDS011;10974;51.034;3.744;2022-10-30T12:57:48;14.63;;;6.77;;
21624;SDS011;10974;51.034;3.744;2022-10-30T13:00:24;15.90;;;6.80;;
21624;SDS011;10974;51.034;3.744;2022-10-30T13:03:04;15.23;;;6.10;;
21624;SDS011;10974;51.034;3.744;2022-10-30T13:05:44;9.50;;;5.97;;
21624;SDS011;10974;51.034;3.744;2022-10-30T13:14:15;13.03;;;6.70;;
21624;SDS011;10974;51.034;3.744;2022-10-30T13:16:43;10.97;;;5.93;;
21624;SDS011;10974;51.034;3.744;2022-10-30T13:19:10;10.53;;;6.43;;
21624;SDS011;10974;51.034;3.744;2022-10-30T13:27:27;17.17;;;6.27;;
21624;SDS011;10974;51.034;3.744;2022-10-30T13:30:07;14.00;;;7.60;;
21624;SDS011;10974;51.034;3.744;2022-10-30T13:54:18;6.37;;;4.37;;
21624;SDS011;10974;51.034;3.744;2022-10-30T13:56:51;9.70;;;4.77;;
21624;SDS011;10974;51.034;3.744;2022-10-30T14:04:32;8.93;;;4.20;;
21624;SDS011;10974;51.034;3.744;2022-10-30T14:07:14;6.50;;;4.00;;
21624;SDS011;10974;51.034;3.744;2022-10-30T14:10:10;13.17;;;5.30;;
21624;SDS011;10974;51.034;3.744;2022-10-30T14:13:27;10.13;;;4.73;;
21624;SDS011;10974;51.034;3.744;2022-10-30T14:16:02;11.07;;;5.10;;
21624;SDS011;10974;51.034;3.744;2022-10-30T14:18:43;11.83;;;4.87;;
21624;SDS011;10974;51.034;3.744;2022-10-30T14:24:20;8.30;;;4.57;;
21624;SDS011;10974;51.034;3.744;2022-10-30T14:26:52;11.80;;;5.10;;
21624;SDS011;10974;51.034;3.744;2022-10-30T14:32:46;11.07;;;4.80;;
21624;SDS011;10974;51.034;3.744;2022-10-30T14:34:45;8.20;;;3.93;;
21624;SDS011;10974;51.034;3.744;2022-10-30T14:39:50;9.77;;;3.70;;
21624;SDS011;10974;51.034;3.744;2022-10-30T14:42:19;8.80;;;2.70;;
21624;SDS011;10974;51.034;3.744;2022-10-30T14:55:49;7.43;;;3.07;;
21624;SDS011;10974;51.034;3.744;2022-10-30T14:58:33;8.83;;;3.37;;
21624;SDS011;10974;51.034;3.744;2022-10-30T15:06:50;15.73;;;4.10;;
21624;SDS011;10974;51.034;3.744;2022-10-30T15:12:36;6.53;;;3.23;;
21624;SDS011;10974;51.034;3.744;2022-10-30T15:15:04;7.30;;;2.90;;
21624;SDS011;10974;51.034;3.744;2022-10-30T15:17:38;6.20;;;2.90;;
21624;SDS011;10974;51.034;3.744;2022-10-30T15:20:12;4.63;;;2.50;;
21624;SDS011;10974;51.034;3.744;2022-10-30T15:22:52;5.23;;;2.70;;
21624;SDS011;10974;51.034;3.744;2022-10-30T15:25:20;5.83;;;2.77;;
21624;SDS011;10974;51.034;3.744;2022-10-30T15:27:49;7.50;;;3.03;;
21624;SDS011;10974;51.034;3.744;2022-10-30T15:30:18;5.40;;;2.60;;
21624;SDS011;10974;51.034;3.744;2022-10-30T15:32:45;9.50;;;3.70;;
21624;SDS011;10974;51.034;3.744;2022-10-30T15:35:15;7.93;;;3.60;;
21624;SDS011;10974;51.034;3.744;2022-10-30T15:37:57;8.57;;;3.20;;
21624;SDS011;10974;51.034;3.744;2022-10-30T15:40:30;6.40;;;3.33;;
21624;SDS011;10974;51.034;3.744;2022-10-30T15:42:59;10.97;;;3.63;;
21624;SDS011;10974;51.034;3.744;2022-10-30T15:45:31;9.97;;;3.53;;
21624;SDS011;10974;51.034;3.744;2022-10-30T15:50:36;8.03;;;4.00;;
21624;SDS011;10974;51.034;3.744;2022-10-30T15:53:13;6.93;;;3.70;;
21624;SDS011;10974;51.034;3.744;2022-10-30T15:55:44;6.17;;;3.23;;
21624;SDS011;10974;51.034;3.744;2022-10-30T15:58:12;5.83;;;3.43;;
21624;SDS011;10974;51.034;3.744;2022-10-30T16:00:41;6.90;;;2.93;;
21624;SDS011;10974;51.034;3.744;2022-10-30T16:03:18;7.40;;;2.97;;
21624;SDS011;10974;51.034;3.744;2022-10-30T16:05:43;7.07;;;3.10;;
21624;SDS011;10974;51.034;3.744;2022-10-30T16:08:11;9.30;;;3.70;;
21624;SDS011;10974;51.034;3.744;2022-10-30T16:10:50;7.33;;;3.00;;
21624;SDS011;10974;51.034;3.744;2022-10-30T16:13:28;4.30;;;2.60;;
21624;SDS011;10974;51.034;3.744;2022-10-30T16:15:54;9.27;;;3.30;;
21624;SDS011;10974;51.034;3.744;2022-10-30T16:18:29;8.07;;;2.77;;
21624;SDS011;10974;51.034;3.744;2022-10-30T16:21:00;4.87;;;2.57;;
21624;SDS011;10974;51.034;3.744;2022-10-30T16:23:29;7.73;;;3.33;;
21624;SDS011;10974;51.034;3.744;2022-10-30T16:26:00;7.13;;;3.00;;
21624;SDS011;10974;51.034;3.744;2022-10-30T16:28:30;8.40;;;2.80;;
21624;SDS011;10974;51.034;3.744;2022-10-30T16:31:02;4.70;;;3.07;;
21624;SDS011;10974;51.034;3.744;2022-10-30T16:33:31;9.13;;;3.70;;
21624;SDS011;10974;51.034;3.744;2022-10-30T16:35:58;5.97;;;3.00;;
21624;SDS011;10974;51.034;3.744;2022-10-30T16:38:27;6.60;;;3.30;;
21624;SDS011;10974;51.034;3.744;2022-10-30T16:40:56;5.53;;;3.23;;
21624;SDS011;10974;51.034;3.744;2022-10-30T16:43:24;8.00;;;3.57;;
21624;SDS011;10974;51.034;3.744;2022-10-30T16:45:50;7.40;;;2.83;;
21624;SDS011;10974;51.034;3.744;2022-10-30T16:48:24;6.47;;;2.70;;
21624;SDS011;10974;51.034;3.744;2022-10-30T16:50:57;10.00;;;4.00;;
21624;SDS011;10974;51.034;3.744;2022-10-30T16:53:24;11.70;;;4.23;;
21624;SDS011;10974;51.034;3.744;2022-10-30T16:55:50;7.23;;;4.07;;
21624;SDS011;10974;51.034;3.744;2022-10-30T16:58:18;6.00;;;3.20;;
21624;SDS011;10974;51.034;3.744;2022-10-30T17:00:51;9.60;;;3.13;;
21624;SDS011;10974;51.034;3.744;2022-10-30T17:03:19;5.03;;;2.57;;
21624;SDS011;10974;51.034;3.744;2022-10-30T17:05:56;3.57;;;1.90;;
21624;SDS011;10974;51.034;3.744;2022-10-30T17:08:26;3.53;;;2.10;;
21624;SDS011;10974;51.034;3.744;2022-10-30T17:11:32;3.23;;;2.40;;
21624;SDS011;10974;51.034;3.744;2022-10-30T17:13:59;3.00;;;2.20;;
21624;SDS011;10974;51.034;3.744;2022-10-30T17:18:52;2.13;;;1.93;;
21624;SDS011;10974;51.034;3.744;2022-10-30T17:21:24;2.30;;;1.90;;
21624;SDS011;10974;51.034;3.744;2022-10-30T17:24:00;2.93;;;2.30;;
21624;SDS011;10974;51.034;3.744;2022-10-30T17:26:26;2.97;;;1.87;;
21624;SDS011;10974;51.034;3.744;2022-10-30T17:28:53;2.20;;;1.73;;
21624;SDS011;10974;51.034;3.744;2022-10-30T17:31:20;1.40;;;1.30;;
21624;SDS011;10974;51.034;3.744;2022-10-30T17:36:39;1.40;;;1.30;;
21624;SDS011;10974;51.034;3.744;2022-10-30T17:39:06;1.53;;;1.43;;
21624;SDS011;10974;51.034;3.744;2022-10-30T17:41:32;1.50;;;1.40;;
21624;SDS011;10974;51.034;3.744;2022-10-30T17:43:58;1.53;;;1.40;;
21624;SDS011;10974;51.034;3.744;2022-10-30T17:46:25;3.80;;;1.40;;
21624;SDS011;10974;51.034;3.744;2022-10-30T17:48:51;2.27;;;1.50;;
21624;SDS011;10974;51.034;3.744;2022-10-30T17:51:17;1.53;;;1.43;;
21624;SDS011;10974;51.034;3.744;2022-10-30T17:53:44;1.63;;;1.40;;
21624;SDS011;10974;51.034;3.744;2022-10-30T17:56:15;1.30;;;1.20;;
21624;SDS011;10974;51.034;3.744;2022-10-30T17:58:44;1.47;;;1.37;;
21624;SDS011;10974;51.034;3.744;2022-10-30T18:01:13;1.40;;;1.30;;
21624;SDS011;10974;51.034;3.744;2022-10-30T18:03:42;1.47;;;1.10;;
21624;SDS011;10974;51.034;3.744;2022-10-30T18:06:08;1.13;;;1.10;;
21624;SDS011;10974;51.034;3.744;2022-10-30T18:08:41;1.47;;;1.37;;
21624;SDS011;10974;51.034;3.744;2022-10-30T18:11:11;1.90;;;1.33;;
21624;SDS011;10974;51.034;3.744;2022-10-30T18:13:38;3.87;;;1.67;;
21624;SDS011;10974;51.034;3.744;2022-10-30T18:16:04;3.27;;;1.93;;
21624;SDS011;10974;51.034;3.744;2022-10-30T18:18:30;2.57;;;1.70;;
21624;SDS011;10974;51.034;3.744;2022-10-30T18:20:56;2.00;;;1.80;;
21624;SDS011;10974;51.034;3.744;2022-10-30T18:23:22;3.13;;;2.00;;
21624;SDS011;10974;51.034;3.744;2022-10-30T18:25:49;3.00;;;1.83;;
21624;SDS011;10974;51.034;3.744;2022-10-30T18:28:15;2.03;;;1.83;;
21624;SDS011;10974;51.034;3.744;2022-10-30T18:30:49;2.60;;;1.70;;
21624;SDS011;10974;51.034;3.744;2022-10-30T18:33:18;3.20;;;1.60;;
21624;SDS011;10974;51.034;3.744;2022-10-30T18:35:44;3.60;;;1.77;;
21624;SDS011;10974;51.034;3.744;2022-10-30T18:38:12;3.67;;;2.07;;
21624;SDS011;10974;51.034;3.744;2022-10-30T18:40:38;1.80;;;1.60;;
21624;SDS011;10974;51.034;3.744;2022-10-30T18:43:07;2.17;;;1.90;;
21624;SDS011;10974;51.034;3.744;2022-10-30T18:45:35;1.83;;;1.60;;
21624;SDS011;10974;51.034;3.744;2022-10-30T18:48:02;1.83;;;1.40;;
21624;SDS011;10974;51.034;3.744;2022-10-30T18:50:29;5.07;;;2.00;;
21624;SDS011;10974;51.034;3.744;2022-10-30T18:52:58;2.10;;;1.90;;
21624;SDS011;10974;51.034;3.744;2022-10-30T18:55:25;5.03;;;2.17;;
21624;SDS011;10974;51.034;3.744;2022-10-30T18:58:03;2.77;;;1.77;;
21624;SDS011;10974;51.034;3.744;2022-10-30T19:00:30;3.07;;;1.90;;
21624;SDS011;10974;51.034;3.744;2022-10-30T19:02:57;3.70;;;2.30;;
21624;SDS011;10974;51.034;3.744;2022-10-30T19:05:25;3.00;;;1.97;;
21624;SDS011;10974;51.034;3.744;2022-10-30T19:07:52;2.27;;;1.90;;
21624;SDS011;10974;51.034;3.744;2022-10-30T19:10:17;3.87;;;1.83;;
21624;SDS011;10974;51.034;3.744;2022-10-30T19:12:43;2.13;;;1.90;;
21624;SDS011;10974;51.034;3.744;2022-10-30T19:15:17;4.50;;;2.17;;
21624;SDS011;10974;51.034;3.744;2022-10-30T19:17:44;3.50;;;2.07;;
21624;SDS011;10974;51.034;3.744;2022-10-30T19:20:11;3.97;;;2.50;;
21624;SDS011;10974;51.034;3.744;2022-10-30T19:22:37;3.27;;;2.20;;
21624;SDS011;10974;51.034;3.744;2022-10-30T19:25:16;4.50;;;2.23;;
21624;SDS011;10974;51.034;3.744;2022-10-30T19:27:51;2.83;;;2.00;;
21624;SDS011;10974;51.034;3.744;2022-10-30T19:30:17;2.00;;;1.90;;
21624;SDS011;10974;51.034;3.744;2022-10-30T19:32:44;4.13;;;2.27;;
21624;SDS011;10974;51.034;3.744;2022-10-30T19:35:10;2.70;;;2.10;;
21624;SDS011;10974;51.034;3.744;2022-10-30T19:37:37;7.50;;;2.60;;
21624;SDS011;10974;51.034;3.744;2022-10-30T19:40:16;2.90;;;2.40;;
21624;SDS011;10974;51.034;3.744;2022-10-30T19:42:53;4.53;;;2.77;;
21624;SDS011;10974;51.034;3.744;2022-10-30T19:45:21;5.60;;;3.23;;
21624;SDS011;10974;51.034;3.744;2022-10-30T19:47:48;7.20;;;3.40;;
21624;SDS011;10974;51.034;3.744;2022-10-30T19:50:34;6.10;;;3.80;;
21624;SDS011;10974;51.034;3.744;2022-10-30T19:53:04;3.40;;;2.50;;
21624;SDS011;10974;51.034;3.744;2022-10-30T19:55:31;5.07;;;2.60;;
21624;SDS011;10974;51.034;3.744;2022-10-30T19:57:59;4.43;;;2.50;;
21624;SDS011;10974;51.034;3.744;2022-10-30T20:00:29;4.63;;;2.50;;
21624;SDS011;10974;51.034;3.744;2022-10-30T20:02:57;3.60;;;2.00;;
21624;SDS011;10974;51.034;3.744;2022-10-30T20:05:27;4.30;;;2.40;;
21624;SDS011;10974;51.034;3.744;2022-10-30T20:08:01;4.43;;;2.30;;
21624;SDS011;10974;51.034;3.744;2022-10-30T20:10:27;3.70;;;2.10;;
21624;SDS011;10974;51.034;3.744;2022-10-30T20:12:55;4.10;;;2.57;;
21624;SDS011;10974;51.034;3.744;2022-10-30T20:15:22;3.70;;;2.17;;
21624;SDS011;10974;51.034;3.744;2022-10-30T20:17:48;4.63;;;2.70;;
21624;SDS011;10974;51.034;3.744;2022-10-30T20:20:16;3.40;;;2.40;;
21624;SDS011;10974;51.034;3.744;2022-10-30T20:22:44;3.67;;;2.87;;
21624;SDS011;10974;51.034;3.744;2022-10-30T20:25:10;4.80;;;3.07;;
21624;SDS011;10974;51.034;3.744;2022-10-30T20:27:36;6.43;;;2.80;;
21624;SDS011;10974;51.034;3.744;2022-10-30T20:30:03;4.17;;;2.83;;
21624;SDS011;10974;51.034;3.744;2022-10-30T20:32:30;4.00;;;2.50;;
21624;SDS011;10974;51.034;3.744;2022-10-30T20:34:55;4.40;;;2.73;;
21624;SDS011;10974;51.034;3.744;2022-10-30T20:37:21;4.73;;;2.90;;
21624;SDS011;10974;51.034;3.744;2022-10-30T20:39:48;3.93;;;2.50;;
21624;SDS011;10974;51.034;3.744;2022-10-30T20:42:14;5.83;;;2.77;;
21624;SDS011;10974;51.034;3.744;2022-10-30T20:44:44;4.43;;;3.00;;
21624;SDS011;10974;51.034;3.744;2022-10-30T20:47:10;3.10;;;2.20;;
21624;SDS011;10974;51.034;3.744;2022-10-30T20:49:36;6.00;;;3.43;;
21624;SDS011;10974;51.034;3.744;2022-10-30T20:52:02;5.90;;;3.23;;
21624;SDS011;10974;51.034;3.744;2022-10-30T20:54:27;4.70;;;2.80;;
21624;SDS011;10974;51.034;3.744;2022-10-30T20:56:53;4.10;;;3.13;;
21624;SDS011;10974;51.034;3.744;2022-10-30T20:59:19;3.87;;;2.80;;
21624;SDS011;10974;51.034;3.744;2022-10-30T21:01:44;4.67;;;3.17;;
21624;SDS011;10974;51.034;3.744;2022-10-30T21:04:10;3.37;;;2.63;;
21624;SDS011;10974;51.034;3.744;2022-10-30T21:06:36;3.53;;;2.77;;
21624;SDS011;10974;51.034;3.744;2022-10-30T21:09:01;4.03;;;2.60;;
21624;SDS011;10974;51.034;3.744;2022-10-30T21:11:27;3.87;;;2.77;;
21624;SDS011;10974;51.034;3.744;2022-10-30T21:13:53;2.30;;;2.10;;